sensor_id;sensor_type;location;lat;lon;timestamp;temperature;humidity
65396;HTU21D;52004;45.136;39.010;2022-12-29T00:01:15;3.99;76.34
65396;HTU21D;52004;45.136;39.010;2022-12-29T00:03:41;3.99;76.37
65396;HTU21D;52004;45.136;39.010;2022-12-29T00:06:07;4.00;76.41
65396;HTU21D;52004;45.136;39.010;2022-12-29T00:08:33;4.02;76.37
65396;HTU21D;52004;45.136;39.010;2022-12-29T00:11:06;3.99;76.34
65396;HTU21D;52004;45.136;39.010;2022-12-29T00:13:33;4.00;76.38
65396;HTU21D;52004;45.136;39.010;2022-12-29T00:16:17;4.00;76.36
65396;HTU21D;52004;45.136;39.010;2022-12-29T00:18:43;3.95;76.38
65396;HTU21D;52004;45.136;39.010;2022-12-29T00:21:16;3.94;76.45
65396;HTU21D;52004;45.136;39.010;2022-12-29T00:24:01;3.92;76.42
65396;HTU21D;52004;45.136;39.010;2022-12-29T00:29:46;3.89;76.31
65396;HTU21D;52004;45.136;39.010;2022-12-29T00:32:31;3.86;76.21
65396;HTU21D;52004;45.136;39.010;2022-12-29T00:35:23;3.84;76.17
65396;HTU21D;52004;45.136;39.010;2022-12-29T00:37:50;3.79;76.17
65396;HTU21D;52004;45.136;39.010;2022-12-29T00:40:35;3.74;76.14
65396;HTU21D;52004;45.136;39.010;2022-12-29T00:43:20;3.69;76.16
65396;HTU21D;52004;45.136;39.010;2022-12-29T00:46:04;3.63;76.14
65396;HTU21D;52004;45.136;39.010;2022-12-29T00:48:30;3.58;76.13
65396;HTU21D;52004;45.136;39.010;2022-12-29T00:51:15;3.56;76.22
65396;HTU21D;52004;45.136;39.010;2022-12-29T00:53:40;3.50;76.18
65396;HTU21D;52004;45.136;39.010;2022-12-29T00:56:06;3.47;76.21
65396;HTU21D;52004;45.136;39.010;2022-12-29T00:58:32;3.44;76.25
65396;HTU21D;52004;45.136;39.010;2022-12-29T01:01:05;3.42;76.23
65396;HTU21D;52004;45.136;39.010;2022-12-29T01:03:32;3.36;76.28
65396;HTU21D;52004;45.136;39.010;2022-12-29T01:06:02;3.34;76.27
65396;HTU21D;52004;45.136;39.010;2022-12-29T01:08:28;3.33;76.23
65396;HTU21D;52004;45.136;39.010;2022-12-29T01:11:01;3.31;76.22
65396;HTU21D;52004;45.136;39.010;2022-12-29T01:13:27;3.30;76.24
65396;HTU21D;52004;45.136;39.010;2022-12-29T01:15:53;3.28;76.24
65396;HTU21D;52004;45.136;39.010;2022-12-29T01:18:19;3.26;76.21
65396;HTU21D;52004;45.136;39.010;2022-12-29T01:20:45;3.23;76.20
65396;HTU21D;52004;45.136;39.010;2022-12-29T01:23:11;3.20;76.19
65396;HTU21D;52004;45.136;39.010;2022-12-29T01:25:37;3.17;76.27
65396;HTU21D;52004;45.136;39.010;2022-12-29T01:28:03;3.15;76.31
65396;HTU21D;52004;45.136;39.010;2022-12-29T01:30:29;3.13;76.36
65396;HTU21D;52004;45.136;39.010;2022-12-29T01:32:55;3.11;76.37
65396;HTU21D;52004;45.136;39.010;2022-12-29T01:35:21;3.09;76.37
65396;HTU21D;52004;45.136;39.010;2022-12-29T01:37:47;3.06;76.38
65396;HTU21D;52004;45.136;39.010;2022-12-29T01:40:14;3.08;76.36
65396;HTU21D;52004;45.136;39.010;2022-12-29T01:42:40;3.03;76.41
65396;HTU21D;52004;45.136;39.010;2022-12-29T01:45:10;3.01;76.47
65396;HTU21D;52004;45.136;39.010;2022-12-29T01:47:48;3.00;76.48
65396;HTU21D;52004;45.136;39.010;2022-12-29T01:50:35;2.98;76.47
65396;HTU21D;52004;45.136;39.010;2022-12-29T01:53:04;2.98;76.39
65396;HTU21D;52004;45.136;39.010;2022-12-29T01:55:33;2.96;76.38
65396;HTU21D;52004;45.136;39.010;2022-12-29T01:58:00;2.94;76.44
65396;HTU21D;52004;45.136;39.010;2022-12-29T02:00:29;2.91;76.48
65396;HTU21D;52004;45.136;39.010;2022-12-29T02:02:55;2.89;76.50
65396;HTU21D;52004;45.136;39.010;2022-12-29T02:05:55;2.89;76.43
65396;HTU21D;52004;45.136;39.010;2022-12-29T02:08:13;2.87;76.40
65396;HTU21D;52004;45.136;39.010;2022-12-29T02:10:39;2.85;76.38
65396;HTU21D;52004;45.136;39.010;2022-12-29T02:13:06;2.84;76.34
65396;HTU21D;52004;45.136;39.010;2022-12-29T02:23:28;2.71;76.38
65396;HTU21D;52004;45.136;39.010;2022-12-29T02:31:15;2.64;76.34
65396;HTU21D;52004;45.136;39.010;2022-12-29T02:34:07;2.65;76.34
65396;HTU21D;52004;45.136;39.010;2022-12-29T02:36:39;2.62;76.28
65396;HTU21D;52004;45.136;39.010;2022-12-29T02:44:21;2.57;76.24
65396;HTU21D;52004;45.136;39.010;2022-12-29T02:46:54;2.54;76.21
65396;HTU21D;52004;45.136;39.010;2022-12-29T02:54:29;2.45;76.31
65396;HTU21D;52004;45.136;39.010;2022-12-29T02:59:47;2.40;76.24
65396;HTU21D;52004;45.136;39.010;2022-12-29T03:16:04;2.26;76.17
65396;HTU21D;52004;45.136;39.010;2022-12-29T03:18:34;2.25;76.16
65396;HTU21D;52004;45.136;39.010;2022-12-29T03:21:05;2.21;76.21
65396;HTU21D;52004;45.136;39.010;2022-12-29T03:23:34;2.21;76.23
65396;HTU21D;52004;45.136;39.010;2022-12-29T03:26:01;2.17;76.25
65396;HTU21D;52004;45.136;39.010;2022-12-29T03:28:30;2.15;76.24
65396;HTU21D;52004;45.136;39.010;2022-12-29T03:30:57;2.14;76.24
65396;HTU21D;52004;45.136;39.010;2022-12-29T03:33:25;2.12;76.22
65396;HTU21D;52004;45.136;39.010;2022-12-29T03:35:54;2.10;76.20
65396;HTU21D;52004;45.136;39.010;2022-12-29T03:38:33;2.09;76.21
65396;HTU21D;52004;45.136;39.010;2022-12-29T03:41:02;2.07;76.23
65396;HTU21D;52004;45.136;39.010;2022-12-29T03:43:29;2.06;76.24
65396;HTU21D;52004;45.136;39.010;2022-12-29T03:45:56;2.05;76.24
65396;HTU21D;52004;45.136;39.010;2022-12-29T03:48:22;2.03;76.25
65396;HTU21D;52004;45.136;39.010;2022-12-29T03:50:49;2.02;76.24
65396;HTU21D;52004;45.136;39.010;2022-12-29T03:53:16;2.00;76.24
65396;HTU21D;52004;45.136;39.010;2022-12-29T03:55:42;1.99;76.23
65396;HTU21D;52004;45.136;39.010;2022-12-29T03:58:09;1.99;76.22
65396;HTU21D;52004;45.136;39.010;2022-12-29T04:00:58;1.98;76.21
65396;HTU21D;52004;45.136;39.010;2022-12-29T04:03:24;1.97;76.22
65396;HTU21D;52004;45.136;39.010;2022-12-29T04:05:50;1.95;76.21
65396;HTU21D;52004;45.136;39.010;2022-12-29T04:08:17;1.93;76.20
65396;HTU21D;52004;45.136;39.010;2022-12-29T04:10:42;1.93;76.22
65396;HTU21D;52004;45.136;39.010;2022-12-29T04:13:09;1.91;76.21
65396;HTU21D;52004;45.136;39.010;2022-12-29T04:15:34;1.90;76.23
65396;HTU21D;52004;45.136;39.010;2022-12-29T04:18:01;1.88;76.25
65396;HTU21D;52004;45.136;39.010;2022-12-29T04:20:27;1.86;76.27
65396;HTU21D;52004;45.136;39.010;2022-12-29T04:23:12;1.87;76.26
65396;HTU21D;52004;45.136;39.010;2022-12-29T04:25:39;1.84;76.28
65396;HTU21D;52004;45.136;39.010;2022-12-29T04:28:07;1.84;76.32
65396;HTU21D;52004;45.136;39.010;2022-12-29T04:30:48;1.82;76.34
65396;HTU21D;52004;45.136;39.010;2022-12-29T04:33:26;1.80;76.33
65396;HTU21D;52004;45.136;39.010;2022-12-29T04:35:53;1.80;76.34
65396;HTU21D;52004;45.136;39.010;2022-12-29T04:38:20;1.80;76.34
65396;HTU21D;52004;45.136;39.010;2022-12-29T04:40:48;1.79;76.33
65396;HTU21D;52004;45.136;39.010;2022-12-29T04:43:16;1.78;76.31
65396;HTU21D;52004;45.136;39.010;2022-12-29T04:46:00;1.75;76.30
65396;HTU21D;52004;45.136;39.010;2022-12-29T04:48:32;1.72;76.33
65396;HTU21D;52004;45.136;39.010;2022-12-29T04:51:33;1.68;76.34
65396;HTU21D;52004;45.136;39.010;2022-12-29T04:53:59;1.65;76.42
65396;HTU21D;52004;45.136;39.010;2022-12-29T04:56:28;1.65;76.43
65396;HTU21D;52004;45.136;39.010;2022-12-29T04:58:54;1.63;76.44
65396;HTU21D;52004;45.136;39.010;2022-12-29T05:01:21;1.58;76.42
65396;HTU21D;52004;45.136;39.010;2022-12-29T05:03:49;1.55;76.44
65396;HTU21D;52004;45.136;39.010;2022-12-29T05:06:17;1.53;76.60
65396;HTU21D;52004;45.136;39.010;2022-12-29T05:08:43;1.52;76.69
65396;HTU21D;52004;45.136;39.010;2022-12-29T05:11:09;1.52;76.70
65396;HTU21D;52004;45.136;39.010;2022-12-29T05:13:36;1.53;76.64
65396;HTU21D;52004;45.136;39.010;2022-12-29T05:16:03;1.54;76.60
65396;HTU21D;52004;45.136;39.010;2022-12-29T05:18:29;1.55;76.57
65396;HTU21D;52004;45.136;39.010;2022-12-29T05:20:54;1.57;76.56
65396;HTU21D;52004;45.136;39.010;2022-12-29T05:23:22;1.57;76.60
65396;HTU21D;52004;45.136;39.010;2022-12-29T05:25:54;1.56;76.71
65396;HTU21D;52004;45.136;39.010;2022-12-29T05:28:35;1.58;76.82
65396;HTU21D;52004;45.136;39.010;2022-12-29T05:31:16;1.62;76.89
65396;HTU21D;52004;45.136;39.010;2022-12-29T05:33:42;1.65;76.87
65396;HTU21D;52004;45.136;39.010;2022-12-29T05:36:08;1.70;76.89
65396;HTU21D;52004;45.136;39.010;2022-12-29T05:38:37;1.80;77.11
65396;HTU21D;52004;45.136;39.010;2022-12-29T05:41:03;1.97;77.47
65396;HTU21D;52004;45.136;39.010;2022-12-29T05:43:46;2.22;77.38
65396;HTU21D;52004;45.136;39.010;2022-12-29T05:46:39;2.40;77.18
65396;HTU21D;52004;45.136;39.010;2022-12-29T05:49:09;2.64;77.51
65396;HTU21D;52004;45.136;39.010;2022-12-29T05:51:54;0.00;77.54
65396;HTU21D;52004;45.136;39.010;2022-12-29T05:54:21;3.33;77.61
65396;HTU21D;52004;45.136;39.010;2022-12-29T05:56:47;3.54;77.41
65396;HTU21D;52004;45.136;39.010;2022-12-29T05:59:13;3.63;76.98
65396;HTU21D;52004;45.136;39.010;2022-12-29T06:01:40;3.65;76.58
65396;HTU21D;52004;45.136;39.010;2022-12-29T06:04:06;3.64;76.44
65396;HTU21D;52004;45.136;39.010;2022-12-29T06:06:33;0.00;76.34
65396;HTU21D;52004;45.136;39.010;2022-12-29T06:08:59;3.61;76.18
65396;HTU21D;52004;45.136;39.010;2022-12-29T06:11:25;3.60;76.28
65396;HTU21D;52004;45.136;39.010;2022-12-29T06:13:55;3.63;76.58
65396;HTU21D;52004;45.136;39.010;2022-12-29T06:16:22;3.71;76.82
65396;HTU21D;52004;45.136;39.010;2022-12-29T06:18:51;3.85;77.02
65396;HTU21D;52004;45.136;39.010;2022-12-29T06:21:17;4.04;77.09
65396;HTU21D;52004;45.136;39.010;2022-12-29T06:23:45;4.32;77.63
65396;HTU21D;52004;45.136;39.010;2022-12-29T06:26:11;4.72;78.57
65396;HTU21D;52004;45.136;39.010;2022-12-29T06:28:37;5.04;78.47
65396;HTU21D;52004;45.136;39.010;2022-12-29T06:31:03;5.28;78.32
65396;HTU21D;52004;45.136;39.010;2022-12-29T06:33:29;5.47;78.05
65396;HTU21D;52004;45.136;39.010;2022-12-29T06:35:56;5.63;77.85
65396;HTU21D;52004;45.136;39.010;2022-12-29T06:38:22;5.79;77.92
65396;HTU21D;52004;45.136;39.010;2022-12-29T06:40:47;5.80;77.40
65396;HTU21D;52004;45.136;39.010;2022-12-29T06:43:32;5.84;77.13
65396;HTU21D;52004;45.136;39.010;2022-12-29T06:46:25;0.00;77.03
65396;HTU21D;52004;45.136;39.010;2022-12-29T06:48:51;5.81;76.98
65396;HTU21D;52004;45.136;39.010;2022-12-29T06:51:17;5.89;77.20
65396;HTU21D;52004;45.136;39.010;2022-12-29T06:53:43;6.08;78.14
65396;HTU21D;52004;45.136;39.010;2022-12-29T06:56:08;6.31;78.39
65396;HTU21D;52004;45.136;39.010;2022-12-29T06:58:34;6.51;78.63
65396;HTU21D;52004;45.136;39.010;2022-12-29T07:01:00;6.66;78.46
65396;HTU21D;52004;45.136;39.010;2022-12-29T07:03:26;6.79;78.57
65396;HTU21D;52004;45.136;39.010;2022-12-29T07:05:52;6.87;78.20
65396;HTU21D;52004;45.136;39.010;2022-12-29T07:08:19;6.94;78.23
65396;HTU21D;52004;45.136;39.010;2022-12-29T07:10:46;7.09;78.38
65396;HTU21D;52004;45.136;39.010;2022-12-29T07:13:12;7.17;77.95
65396;HTU21D;52004;45.136;39.010;2022-12-29T07:15:38;7.14;77.53
65396;HTU21D;52004;45.136;39.010;2022-12-29T07:18:04;7.13;77.25
65396;HTU21D;52004;45.136;39.010;2022-12-29T07:20:30;7.02;76.74
65396;HTU21D;52004;45.136;39.010;2022-12-29T07:22:56;6.85;76.49
65396;HTU21D;52004;45.136;39.010;2022-12-29T07:25:22;6.75;76.49
65396;HTU21D;52004;45.136;39.010;2022-12-29T07:27:49;6.70;76.25
65396;HTU21D;52004;45.136;39.010;2022-12-29T07:30:15;6.61;76.24
65396;HTU21D;52004;45.136;39.010;2022-12-29T07:32:41;6.55;76.15
65396;HTU21D;52004;45.136;39.010;2022-12-29T07:35:07;6.50;76.12
65396;HTU21D;52004;45.136;39.010;2022-12-29T07:37:33;6.44;76.15
65396;HTU21D;52004;45.136;39.010;2022-12-29T07:40:00;6.40;75.93
65396;HTU21D;52004;45.136;39.010;2022-12-29T07:42:26;6.35;75.95
65396;HTU21D;52004;45.136;39.010;2022-12-29T07:44:52;6.33;75.97
65396;HTU21D;52004;45.136;39.010;2022-12-29T07:47:25;6.29;75.79
65396;HTU21D;52004;45.136;39.010;2022-12-29T07:49:51;6.26;75.86
65396;HTU21D;52004;45.136;39.010;2022-12-29T07:52:17;6.21;75.92
65396;HTU21D;52004;45.136;39.010;2022-12-29T07:54:43;6.19;75.89
65396;HTU21D;52004;45.136;39.010;2022-12-29T07:57:09;6.19;76.02
65396;HTU21D;52004;45.136;39.010;2022-12-29T07:59:35;6.24;76.07
65396;HTU21D;52004;45.136;39.010;2022-12-29T08:02:01;6.28;75.98
65396;HTU21D;52004;45.136;39.010;2022-12-29T08:04:27;6.30;75.91
65396;HTU21D;52004;45.136;39.010;2022-12-29T08:06:53;6.34;75.95
65396;HTU21D;52004;45.136;39.010;2022-12-29T08:09:19;6.37;75.93
65396;HTU21D;52004;45.136;39.010;2022-12-29T08:11:45;6.40;75.85
65396;HTU21D;52004;45.136;39.010;2022-12-29T08:14:11;6.41;75.84
65396;HTU21D;52004;45.136;39.010;2022-12-29T08:16:37;6.41;75.85
65396;HTU21D;52004;45.136;39.010;2022-12-29T08:19:03;6.43;75.85
65396;HTU21D;52004;45.136;39.010;2022-12-29T08:21:30;6.44;75.89
65396;HTU21D;52004;45.136;39.010;2022-12-29T08:23:56;6.45;75.76
65396;HTU21D;52004;45.136;39.010;2022-12-29T08:26:22;6.40;75.70
65396;HTU21D;52004;45.136;39.010;2022-12-29T08:28:48;6.39;75.83
65396;HTU21D;52004;45.136;39.010;2022-12-29T08:31:14;6.39;75.87
65396;HTU21D;52004;45.136;39.010;2022-12-29T08:33:40;6.45;75.91
65396;HTU21D;52004;45.136;39.010;2022-12-29T08:36:06;6.43;75.76
65396;HTU21D;52004;45.136;39.010;2022-12-29T08:38:32;6.43;75.77
65396;HTU21D;52004;45.136;39.010;2022-12-29T08:40:58;6.41;75.51
65396;HTU21D;52004;45.136;39.010;2022-12-29T08:43:27;6.37;75.57
65396;HTU21D;52004;45.136;39.010;2022-12-29T08:45:53;6.37;75.61
65396;HTU21D;52004;45.136;39.010;2022-12-29T08:48:19;6.36;75.65
65396;HTU21D;52004;45.136;39.010;2022-12-29T08:50:48;6.40;75.71
65396;HTU21D;52004;45.136;39.010;2022-12-29T08:53:14;6.48;75.69
65396;HTU21D;52004;45.136;39.010;2022-12-29T08:55:40;6.49;75.36
65396;HTU21D;52004;45.136;39.010;2022-12-29T08:58:06;6.49;75.30
65396;HTU21D;52004;45.136;39.010;2022-12-29T09:00:34;6.49;75.34
65396;HTU21D;52004;45.136;39.010;2022-12-29T09:03:01;6.54;75.39
65396;HTU21D;52004;45.136;39.010;2022-12-29T09:05:27;6.56;75.21
65396;HTU21D;52004;45.136;39.010;2022-12-29T09:07:53;6.54;75.15
65396;HTU21D;52004;45.136;39.010;2022-12-29T09:10:19;6.55;75.18
65396;HTU21D;52004;45.136;39.010;2022-12-29T09:12:45;6.54;75.12
65396;HTU21D;52004;45.136;39.010;2022-12-29T09:15:11;6.54;75.10
65396;HTU21D;52004;45.136;39.010;2022-12-29T09:17:38;6.53;75.05
65396;HTU21D;52004;45.136;39.010;2022-12-29T09:20:08;6.53;75.00
65396;HTU21D;52004;45.136;39.010;2022-12-29T09:22:35;6.52;74.99
65396;HTU21D;52004;45.136;39.010;2022-12-29T09:25:01;6.52;75.01
65396;HTU21D;52004;45.136;39.010;2022-12-29T09:27:27;6.54;75.11
65396;HTU21D;52004;45.136;39.010;2022-12-29T09:29:53;6.58;75.12
65396;HTU21D;52004;45.136;39.010;2022-12-29T09:32:19;6.64;75.69
65396;HTU21D;52004;45.136;39.010;2022-12-29T09:34:45;6.79;78.51
65396;HTU21D;52004;45.136;39.010;2022-12-29T09:37:11;7.16;82.13
65396;HTU21D;52004;45.136;39.010;2022-12-29T09:39:37;7.76;84.48
65396;HTU21D;52004;45.136;39.010;2022-12-29T09:47:03;9.70;84.79
65396;HTU21D;52004;45.136;39.010;2022-12-29T09:49:33;10.26;84.51
65396;HTU21D;52004;45.136;39.010;2022-12-29T09:52:04;10.84;84.74
65396;HTU21D;52004;45.136;39.010;2022-12-29T09:54:42;11.41;84.94
65396;HTU21D;52004;45.136;39.010;2022-12-29T09:57:14;11.98;84.98
65396;HTU21D;52004;45.136;39.010;2022-12-29T09:59:41;12.36;84.49
65396;HTU21D;52004;45.136;39.010;2022-12-29T10:04:49;13.08;84.12
65396;HTU21D;52004;45.136;39.010;2022-12-29T10:20:31;14.55;82.32
65396;HTU21D;52004;45.136;39.010;2022-12-29T10:25:31;14.92;81.79
65396;HTU21D;52004;45.136;39.010;2022-12-29T10:27:59;15.17;82.11
65396;HTU21D;52004;45.136;39.010;2022-12-29T10:30:29;15.38;81.46
65396;HTU21D;52004;45.136;39.010;2022-12-29T10:32:56;15.49;81.26
65396;HTU21D;52004;45.136;39.010;2022-12-29T10:35:26;15.67;80.76
65396;HTU21D;52004;45.136;39.010;2022-12-29T10:37:59;15.84;80.97
65396;HTU21D;52004;45.136;39.010;2022-12-29T10:40:40;15.90;80.13
65396;HTU21D;52004;45.136;39.010;2022-12-29T10:43:43;15.81;80.03
65396;HTU21D;52004;45.136;39.010;2022-12-29T10:46:07;0.00;80.00
65396;HTU21D;52004;45.136;39.010;2022-12-29T10:48:37;15.96;78.70
65396;HTU21D;52004;45.136;39.010;2022-12-29T10:51:07;15.78;77.11
65396;HTU21D;52004;45.136;39.010;2022-12-29T10:53:42;15.47;75.51
65396;HTU21D;52004;45.136;39.010;2022-12-29T10:56:14;14.93;73.90
65396;HTU21D;52004;45.136;39.010;2022-12-29T10:58:40;14.28;73.21
65396;HTU21D;52004;45.136;39.010;2022-12-29T11:01:08;13.88;73.04
65396;HTU21D;52004;45.136;39.010;2022-12-29T11:03:41;13.56;72.64
65396;HTU21D;52004;45.136;39.010;2022-12-29T11:06:15;0.00;72.35
65396;HTU21D;52004;45.136;39.010;2022-12-29T11:08:51;13.00;71.67
65396;HTU21D;52004;45.136;39.010;2022-12-29T11:11:22;12.57;71.38
65396;HTU21D;52004;45.136;39.010;2022-12-29T11:13:50;12.36;72.32
65396;HTU21D;52004;45.136;39.010;2022-12-29T11:16:38;12.64;73.90
65396;HTU21D;52004;45.136;39.010;2022-12-29T11:19:04;13.19;75.57
65396;HTU21D;52004;45.136;39.010;2022-12-29T11:24:00;13.99;75.76
65396;HTU21D;52004;45.136;39.010;2022-12-29T11:26:26;14.35;75.66
65396;HTU21D;52004;45.136;39.010;2022-12-29T11:31:46;15.04;75.18
65396;HTU21D;52004;45.136;39.010;2022-12-29T11:34:32;15.22;74.57
65396;HTU21D;52004;45.136;39.010;2022-12-29T11:37:29;15.32;74.34
65396;HTU21D;52004;45.136;39.010;2022-12-29T11:39:55;15.49;73.98
65396;HTU21D;52004;45.136;39.010;2022-12-29T11:45:04;15.87;73.73
65396;HTU21D;52004;45.136;39.010;2022-12-29T11:47:30;16.05;73.15
65396;HTU21D;52004;45.136;39.010;2022-12-29T11:49:58;16.19;72.85
65396;HTU21D;52004;45.136;39.010;2022-12-29T11:52:26;16.30;72.63
65396;HTU21D;52004;45.136;39.010;2022-12-29T11:54:52;16.36;72.26
65396;HTU21D;52004;45.136;39.010;2022-12-29T11:57:18;16.37;71.78
65396;HTU21D;52004;45.136;39.010;2022-12-29T11:59:55;16.35;71.85
65396;HTU21D;52004;45.136;39.010;2022-12-29T12:04:51;16.41;71.45
65396;HTU21D;52004;45.136;39.010;2022-12-29T12:07:24;16.37;71.28
65396;HTU21D;52004;45.136;39.010;2022-12-29T12:09:57;16.34;71.00
65396;HTU21D;52004;45.136;39.010;2022-12-29T12:12:25;16.35;70.89
65396;HTU21D;52004;45.136;39.010;2022-12-29T12:14:55;16.39;70.83
65396;HTU21D;52004;45.136;39.010;2022-12-29T12:17:51;16.47;70.84
65396;HTU21D;52004;45.136;39.010;2022-12-29T12:20:22;16.52;70.78
65396;HTU21D;52004;45.136;39.010;2022-12-29T12:22:58;16.58;70.82
65396;HTU21D;52004;45.136;39.010;2022-12-29T12:25:37;16.64;70.58
65396;HTU21D;52004;45.136;39.010;2022-12-29T12:30:40;0.00;70.42
65396;HTU21D;52004;45.136;39.010;2022-12-29T12:38:33;16.34;69.63
65396;HTU21D;52004;45.136;39.010;2022-12-29T12:43:44;16.19;69.29
65396;HTU21D;52004;45.136;39.010;2022-12-29T12:56:51;15.15;67.72
65396;HTU21D;52004;45.136;39.010;2022-12-29T13:09:33;13.45;68.10
65396;HTU21D;52004;45.136;39.010;2022-12-29T13:12:07;13.20;67.64
65396;HTU21D;52004;45.136;39.010;2022-12-29T13:20:31;12.31;67.39
65396;HTU21D;52004;45.136;39.010;2022-12-29T13:23:16;12.04;67.46
65396;HTU21D;52004;45.136;39.010;2022-12-29T13:28:23;11.58;67.58
65396;HTU21D;52004;45.136;39.010;2022-12-29T13:31:02;11.34;67.60
65396;HTU21D;52004;45.136;39.010;2022-12-29T13:40:55;10.56;67.84
65396;HTU21D;52004;45.136;39.010;2022-12-29T13:43:21;10.40;67.91
65396;HTU21D;52004;45.136;39.010;2022-12-29T13:45:50;10.25;67.92
65396;HTU21D;52004;45.136;39.010;2022-12-29T13:48:22;10.07;67.97
65396;HTU21D;52004;45.136;39.010;2022-12-29T13:50:53;9.94;68.01
65396;HTU21D;52004;45.136;39.010;2022-12-29T13:55:56;9.57;68.13
65396;HTU21D;52004;45.136;39.010;2022-12-29T13:58:27;9.41;68.28
65396;HTU21D;52004;45.136;39.010;2022-12-29T14:03:51;9.24;68.20
65396;HTU21D;52004;45.136;39.010;2022-12-29T14:06:34;9.11;68.23
65396;HTU21D;52004;45.136;39.010;2022-12-29T14:09:06;8.98;68.35
65396;HTU21D;52004;45.136;39.010;2022-12-29T14:11:51;8.88;68.36
65396;HTU21D;52004;45.136;39.010;2022-12-29T14:14:22;8.77;68.40
65396;HTU21D;52004;45.136;39.010;2022-12-29T14:16:48;8.67;68.46
65396;HTU21D;52004;45.136;39.010;2022-12-29T14:21:54;8.49;68.49
65396;HTU21D;52004;45.136;39.010;2022-12-29T14:34:54;8.08;68.48
65396;HTU21D;52004;45.136;39.010;2022-12-29T14:37:27;7.99;68.52
65396;HTU21D;52004;45.136;39.010;2022-12-29T14:40:14;7.86;68.64
65396;HTU21D;52004;45.136;39.010;2022-12-29T14:42:43;7.73;68.84
65396;HTU21D;52004;45.136;39.010;2022-12-29T14:47:48;7.58;69.00
65396;HTU21D;52004;45.136;39.010;2022-12-29T14:52:47;7.46;69.20
65396;HTU21D;52004;45.136;39.010;2022-12-29T14:57:43;7.41;69.21
65396;HTU21D;52004;45.136;39.010;2022-12-29T15:00:17;7.39;69.25
65396;HTU21D;52004;45.136;39.010;2022-12-29T15:02:45;7.40;69.23
65396;HTU21D;52004;45.136;39.010;2022-12-29T15:05:24;7.39;69.20
65396;HTU21D;52004;45.136;39.010;2022-12-29T15:07:53;7.35;69.18
65396;HTU21D;52004;45.136;39.010;2022-12-29T15:13:13;0.00;69.29
65396;HTU21D;52004;45.136;39.010;2022-12-29T15:15:40;7.28;69.27
65396;HTU21D;52004;45.136;39.010;2022-12-29T15:20:49;7.24;69.27
65396;HTU21D;52004;45.136;39.010;2022-12-29T15:23:16;7.25;69.25
65396;HTU21D;52004;45.136;39.010;2022-12-29T15:25:55;7.27;69.22
65396;HTU21D;52004;45.136;39.010;2022-12-29T15:28:22;7.30;69.13
65396;HTU21D;52004;45.136;39.010;2022-12-29T15:31:05;7.31;69.04
65396;HTU21D;52004;45.136;39.010;2022-12-29T15:33:31;7.31;69.09
65396;HTU21D;52004;45.136;39.010;2022-12-29T15:36:03;7.29;69.11
65396;HTU21D;52004;45.136;39.010;2022-12-29T15:38:29;7.31;69.10
65396;HTU21D;52004;45.136;39.010;2022-12-29T15:44:06;7.25;69.01
65396;HTU21D;52004;45.136;39.010;2022-12-29T15:46:33;7.16;69.10
65396;HTU21D;52004;45.136;39.010;2022-12-29T15:48:59;7.10;69.19
65396;HTU21D;52004;45.136;39.010;2022-12-29T15:51:30;7.03;69.25
65396;HTU21D;52004;45.136;39.010;2022-12-29T15:53:57;6.98;69.26
65396;HTU21D;52004;45.136;39.010;2022-12-29T15:56:24;6.93;69.29
65396;HTU21D;52004;45.136;39.010;2022-12-29T15:58:51;6.90;69.33
65396;HTU21D;52004;45.136;39.010;2022-12-29T16:01:18;6.89;69.29
65396;HTU21D;52004;45.136;39.010;2022-12-29T16:03:44;6.87;69.26
65396;HTU21D;52004;45.136;39.010;2022-12-29T16:08:55;6.79;69.24
65396;HTU21D;52004;45.136;39.010;2022-12-29T16:13:47;6.70;69.31
65396;HTU21D;52004;45.136;39.010;2022-12-29T16:16:16;6.67;69.29
65396;HTU21D;52004;45.136;39.010;2022-12-29T16:18:43;6.65;69.30
65396;HTU21D;52004;45.136;39.010;2022-12-29T16:21:28;6.60;69.32
65396;HTU21D;52004;45.136;39.010;2022-12-29T16:23:58;6.57;69.35
65396;HTU21D;52004;45.136;39.010;2022-12-29T16:26:25;6.53;69.36
65396;HTU21D;52004;45.136;39.010;2022-12-29T16:28:54;6.50;69.39
65396;HTU21D;52004;45.136;39.010;2022-12-29T16:31:22;6.48;69.39
65396;HTU21D;52004;45.136;39.010;2022-12-29T16:36:24;6.36;69.40
65396;HTU21D;52004;45.136;39.010;2022-12-29T16:38:51;6.30;69.48
65396;HTU21D;52004;45.136;39.010;2022-12-29T16:41:30;6.26;69.51
65396;HTU21D;52004;45.136;39.010;2022-12-29T16:46:44;6.16;69.50
65396;HTU21D;52004;45.136;39.010;2022-12-29T16:49:21;6.13;69.49
65396;HTU21D;52004;45.136;39.010;2022-12-29T16:51:47;6.10;69.49
65396;HTU21D;52004;45.136;39.010;2022-12-29T16:54:18;6.10;69.40
65396;HTU21D;52004;45.136;39.010;2022-12-29T16:56:46;6.09;69.28
65396;HTU21D;52004;45.136;39.010;2022-12-29T17:01:45;6.00;69.13
65396;HTU21D;52004;45.136;39.010;2022-12-29T17:04:12;5.94;69.18
65396;HTU21D;52004;45.136;39.010;2022-12-29T17:06:38;5.89;69.15
65396;HTU21D;52004;45.136;39.010;2022-12-29T17:09:21;5.83;69.15
65396;HTU21D;52004;45.136;39.010;2022-12-29T17:11:48;5.75;69.17
65396;HTU21D;52004;45.136;39.010;2022-12-29T17:16:56;5.59;69.33
65396;HTU21D;52004;45.136;39.010;2022-12-29T17:19:30;5.53;69.42
65396;HTU21D;52004;45.136;39.010;2022-12-29T17:21:56;5.49;69.53
65396;HTU21D;52004;45.136;39.010;2022-12-29T17:24:22;5.45;69.59
65396;HTU21D;52004;45.136;39.010;2022-12-29T17:26:49;5.41;69.68
65396;HTU21D;52004;45.136;39.010;2022-12-29T17:29:27;5.42;69.72
65396;HTU21D;52004;45.136;39.010;2022-12-29T17:31:54;5.43;69.76
65396;HTU21D;52004;45.136;39.010;2022-12-29T17:34:19;5.45;69.73
65396;HTU21D;52004;45.136;39.010;2022-12-29T17:36:45;5.46;69.77
65396;HTU21D;52004;45.136;39.010;2022-12-29T17:39:11;5.49;69.74
65396;HTU21D;52004;45.136;39.010;2022-12-29T17:41:37;5.52;69.71
65396;HTU21D;52004;45.136;39.010;2022-12-29T17:44:04;5.57;69.69
65396;HTU21D;52004;45.136;39.010;2022-12-29T17:46:31;5.64;69.61
65396;HTU21D;52004;45.136;39.010;2022-12-29T17:48:57;5.67;69.60
65396;HTU21D;52004;45.136;39.010;2022-12-29T17:51:23;5.68;69.59
65396;HTU21D;52004;45.136;39.010;2022-12-29T17:53:49;5.69;69.62
65396;HTU21D;52004;45.136;39.010;2022-12-29T17:56:17;5.71;69.65
65396;HTU21D;52004;45.136;39.010;2022-12-29T17:58:43;5.71;69.68
65396;HTU21D;52004;45.136;39.010;2022-12-29T18:01:10;5.72;69.68
65396;HTU21D;52004;45.136;39.010;2022-12-29T18:03:37;5.72;69.75
65396;HTU21D;52004;45.136;39.010;2022-12-29T18:06:04;5.76;69.80
65396;HTU21D;52004;45.136;39.010;2022-12-29T18:08:36;5.81;69.80
65396;HTU21D;52004;45.136;39.010;2022-12-29T18:11:03;5.87;69.78
65396;HTU21D;52004;45.136;39.010;2022-12-29T18:13:30;5.93;69.78
65396;HTU21D;52004;45.136;39.010;2022-12-29T18:15:57;5.97;69.78
65396;HTU21D;52004;45.136;39.010;2022-12-29T18:18:24;0.00;69.78
65396;HTU21D;52004;45.136;39.010;2022-12-29T18:20:51;6.10;69.75
65396;HTU21D;52004;45.136;39.010;2022-12-29T18:23:23;6.17;69.72